This is the latest recevied weather packets stored in our database for station/object OM4MO-10. If no packets are shown the sender has not sent any weather packets the latest 1 day(s).
| Time | Temp. | Humidity | Pressure | Rain* | Wind** | Luminosity | Snow |
|---|---|---|---|---|---|---|---|
| 1778087506 | 18.89° C | 76% | 1009.7 hPa | - | - | - | - |
| 1778086306 | 19.44° C | 68% | 1009.4 hPa | - | - | - | - |
| 1778085106 | 20.56° C | 64% | 1007.8 hPa | - | - | - | - |
| 1778076705 | 22.78° C | 54% | 1011.8 hPa | - | - | - | - |
| 1778075505 | 23.89° C | 52% | 1012.8 hPa | - | - | - | - |
| 1778068304 | 22.78° C | 55% | 1012.2 hPa | - | - | - | - |
| 1778065904 | 22.78° C | 55% | 1014.1 hPa | - | - | - | - |
| 1778064704 | 20.56° C | 67% | 1010.9 hPa | - | - | - | - |
| 1778057503 | 19.44° C | 84% | 1011.7 hPa | - | - | - | - |
| 1778056303 | 18.33° C | 87% | 1011.8 hPa | - | - | - | - |
| 1778055103 | 18.89° C | 95% | 1011.4 hPa | - | - | - | - |
| 1778053903 | 17.22° C | 96% | 1011.6 hPa | - | - | - | - |
| 1778052703 | 16.67° C | 100% | 1011.6 hPa | - | - | - | - |
| 1778047902 | 15° C | 100% | 1011.5 hPa | - | - | - | - |
| 1778046702 | 14.44° C | 100% | 1011.4 hPa | - | - | - | - |
| 1778045502 | 14.44° C | 100% | 1011.4 hPa | - | - | - | - |
| 1778044302 | 13.89° C | 100% | 1011.4 hPa | - | - | - | - |
| 1778043102 | 13.33° C | 100% | 1011.3 hPa | - | - | - | - |
| 1778039500 | 11.11° C | 100% | 1011 hPa | - | - | - | - |
| 1778038300 | 10.56° C | 100% | 1010.9 hPa | - | - | - | - |
| 1778037100 | 10.56° C | 100% | 1010.7 hPa | - | - | - | - |
| 1778035900 | 10.56° C | 100% | 1010.7 hPa | - | - | - | - |
| 1778034700 | 11.11° C | 100% | 1010.9 hPa | - | - | - | - |
| 1778033499 | 11.11° C | 100% | 1011 hPa | - | - | - | - |
| 1778032299 | 12.22° C | 100% | 1011 hPa | - | - | - | - |
* Rain since midnight (hover to see other rain measurements)
** Current wind speed in m/s (hover to see current wind gust speed)